Time;durP1;ratioP1;P1;durP2;ratioP2;P2;SDS_P1;SDS_P2;PMS_P1;PMS_P2;Temp;Humidity;BMP_temperature;BMP_pressure;BME280_temperature;BME280_humidity;BME280_pressure;Samples;Min_cycle;Max_cycle;Signal;HPM_P1;HPM_P2
2023/08/21 00:00:55;;;;;;;16.38;11.93;;;716.90;2432.00;;;;;;5068920;28;20019;-71
2023/08/21 00:03:22;;;;;;;15.70;11.77;;;716.90;2432.00;;;;;;5064478;28;20114;-71
2023/08/21 00:05:48;;;;;;;18.10;12.27;;;716.90;2432.00;;;;;;5073078;28;20081;-75
2023/08/21 00:08:13;;;;;;;15.27;13.20;;;716.80;2432.00;;;;;;5068912;28;20040;-71
2023/08/21 00:10:40;;;;;;;15.80;12.35;;;716.80;2432.00;;;;;;5068432;28;20089;-72
2023/08/21 00:13:06;;;;;;;20.55;12.48;;;716.80;2432.00;;;;;;5072114;28;20380;-72
2023/08/21 00:15:32;;;;;;;14.68;13.18;;;716.80;2432.00;;;;;;5062679;28;20021;-71
2023/08/21 00:17:58;;;;;;;14.65;13.02;;;692.10;2432.00;;;;;;5068709;28;20053;-71
2023/08/21 00:20:24;;;;;;;14.57;12.48;;;692.10;2432.00;;;;;;5064730;28;20043;-71
2023/08/21 00:22:50;;;;;;;16.90;12.77;;;692.00;2432.00;;;;;;5053974;28;20452;-72
2023/08/21 00:25:15;;;;;;;22.17;13.05;;;692.00;2432.00;;;;;;5063745;28;20496;-72
2023/08/21 00:27:41;;;;;;;16.33;13.13;;;691.90;2432.00;;;;;;5066370;28;20048;-71
2023/08/21 00:30:07;;;;;;;15.73;12.88;;;691.90;2432.00;;;;;;5068349;28;20029;-72
2023/08/21 00:32:33;;;;;;;14.68;13.18;;;691.90;2432.00;;;;;;5071839;28;20028;-71
2023/08/21 00:34:59;;;;;;;16.48;13.70;;;691.80;2432.00;;;;;;5063978;28;20027;-71
2023/08/21 00:37:25;;;;;;;21.52;13.35;;;691.70;2432.00;;;;;;5072929;28;20488;-71
2023/08/21 00:39:50;;;;;;;18.67;14.20;;;691.70;2432.00;;;;;;5066930;28;20028;-71
2023/08/21 00:42:16;;;;;;;18.10;14.45;;;691.70;2432.00;;;;;;5060416;28;20389;-71
2023/08/21 00:44:42;;;;;;;15.35;13.50;;;691.70;2432.00;;;;;;5061765;28;20361;-71
2023/08/21 00:47:07;;;;;;;21.05;14.20;;;691.80;2432.00;;;;;;5063773;28;20071;-72
2023/08/21 00:49:34;;;;;;;16.90;14.80;;;691.80;2432.00;;;;;;5064068;28;20476;-71
2023/08/21 00:52:01;;;;;;;15.25;13.65;;;691.70;2432.00;;;;;;5067628;28;20496;-72
2023/08/21 00:54:27;;;;;;;15.40;13.50;;;691.70;2432.00;;;;;;5068643;28;20397;-71
2023/08/21 00:56:52;;;;;;;19.98;14.35;;;691.70;2432.00;;;;;;5068082;28;20034;-71
2023/08/21 00:59:20;;;;;;;18.38;13.88;;;691.70;2432.00;;;;;;5059483;28;20179;-71
2023/08/21 01:01:46;;;;;;;14.85;13.27;;;691.70;2432.00;;;;;;5065853;28;20024;-72
2023/08/21 01:04:11;;;;;;;16.88;13.70;;;691.60;2432.00;;;;;;5067471;28;20380;-72
2023/08/21 01:06:37;;;;;;;19.08;14.63;;;691.60;2432.00;;;;;;5067983;28;20060;-71
2023/08/21 01:09:11;;;;;;;15.32;13.73;;;691.60;2432.00;;;;;;5061354;28;20094;-71
2023/08/21 01:12:01;;;;;;;14.98;13.23;;;691.60;2432.00;;;;;;5063599;28;20021;-71
2023/08/21 01:14:45;;;;;;;16.60;14.50;;;691.60;2432.00;;;;;;5063065;28;20499;-72
2023/08/21 01:17:14;;;;;;;17.83;13.65;;;691.60;2432.00;;;;;;5064939;28;20020;-72
2023/08/21 01:19:45;;;;;;;17.85;14.13;;;691.60;2432.00;;;;;;5054423;28;20025;-72
2023/08/21 01:22:11;;;;;;;22.52;15.68;;;691.60;2432.00;;;;;;5053227;28;20477;-72
2023/08/21 01:24:38;;;;;;;16.15;13.70;;;691.60;2432.00;;;;;;5069060;28;20430;-72
2023/08/21 01:27:03;;;;;;;17.23;14.10;;;691.60;2432.00;;;;;;5073114;28;20074;-74
2023/08/21 01:29:29;;;;;;;20.08;14.30;;;691.60;2432.00;;;;;;5073064;28;20025;-73
2023/08/21 01:32:15;;;;;;;15.75;13.57;;;691.60;2432.00;;;;;;5072977;28;20432;-72
2023/08/21 01:34:41;;;;;;;23.05;14.57;;;691.50;2432.00;;;;;;5049161;28;20115;-71
2023/08/21 01:37:08;;;;;;;14.82;13.18;;;691.50;2432.00;;;;;;5072944;28;20091;-72
2023/08/21 01:39:34;;;;;;;16.17;13.98;;;691.50;2432.00;;;;;;5072880;28;20035;-71
2023/08/21 01:42:00;;;;;;;18.80;15.15;;;691.50;2432.00;;;;;;5072969;28;20025;-71
2023/08/21 01:44:26;;;;;;;19.17;12.82;;;691.30;2432.00;;;;;;5072795;28;20035;-73
2023/08/21 01:46:53;;;;;;;18.73;13.82;;;691.40;2432.00;;;;;;5072750;28;20023;-72
2023/08/21 01:49:19;;;;;;;18.08;13.68;;;691.40;2432.00;;;;;;5072533;28;20028;-71
2023/08/21 01:51:45;;;;;;;18.55;14.43;;;691.40;2432.00;;;;;;5072760;28;20035;-71
2023/08/21 01:54:11;;;;;;;19.58;13.38;;;691.30;2432.00;;;;;;5072732;28;20023;-72
2023/08/21 01:56:37;;;;;;;22.25;14.75;;;691.40;2432.00;;;;;;5072894;28;20033;-72
2023/08/21 01:59:04;;;;;;;15.55;14.05;;;691.30;2432.00;;;;;;5072679;28;20452;-72
2023/08/21 02:01:30;;;;;;;18.75;13.38;;;691.30;2432.00;;;;;;5072702;28;20024;-71
2023/08/21 02:03:56;;;;;;;15.32;13.48;;;691.30;2432.00;;;;;;5072464;28;20032;-72
2023/08/21 02:06:22;;;;;;;15.75;13.88;;;691.20;2432.00;;;;;;5072737;28;20024;-72
2023/08/21 02:08:49;;;;;;;16.23;13.93;;;691.20;2432.00;;;;;;5072528;28;20038;-72
2023/08/21 02:11:15;;;;;;;18.95;14.38;;;691.20;2432.00;;;;;;5072742;28;20379;-72
2023/08/21 02:13:40;;;;;;;14.27;12.77;;;691.30;2432.00;;;;;;5072508;28;20476;-72
2023/08/21 02:16:06;;;;;;;16.17;14.23;;;691.20;2432.00;;;;;;5072442;28;20024;-72
2023/08/21 02:18:32;;;;;;;15.38;13.80;;;691.20;2432.00;;;;;;5071870;28;20056;-78
2023/08/21 02:20:58;;;;;;;15.18;13.43;;;691.20;2432.00;;;;;;5072518;28;20375;-71
2023/08/21 02:23:26;;;;;;;17.35;13.85;;;691.20;2432.00;;;;;;5072584;28;20025;-72
2023/08/21 02:25:52;;;;;;;15.52;13.82;;;691.20;2432.00;;;;;;5073786;28;20499;-71
2023/08/21 02:28:18;;;;;;;17.63;13.32;;;666.50;2432.00;;;;;;5076279;28;20032;-71
2023/08/21 02:30:43;;;;;;;16.88;13.45;;;666.50;2432.00;;;;;;5075752;28;20052;-71
2023/08/21 02:33:09;;;;;;;16.35;14.40;;;666.50;2432.00;;;;;;5075868;28;20024;-73
2023/08/21 02:35:35;;;;;;;16.55;13.30;;;666.50;2432.00;;;;;;5075840;28;20095;-70
2023/08/21 02:38:01;;;;;;;15.38;13.77;;;666.50;2432.00;;;;;;5075948;28;20035;-72
2023/08/21 02:40:27;;;;;;;14.52;13.02;;;691.20;2432.00;;;;;;5076039;28;20012;-71
2023/08/21 02:42:52;;;;;;;18.17;14.82;;;691.20;2432.00;;;;;;5075685;28;20025;-71
2023/08/21 02:45:19;;;;;;;17.30;13.02;;;666.50;2432.00;;;;;;5075823;28;20053;-71
2023/08/21 02:47:45;;;;;;;16.98;12.85;;;666.50;2432.00;;;;;;5075576;28;20021;-72
2023/08/21 02:50:11;;;;;;;15.68;14.13;;;666.40;2432.00;;;;;;5075444;28;20095;-72
2023/08/21 02:52:37;;;;;;;14.35;12.90;;;666.30;2432.00;;;;;;5075731;28;20449;-72
2023/08/21 02:55:04;;;;;;;15.68;13.57;;;666.30;2432.00;;;;;;5075592;28;20025;-72
2023/08/21 02:57:30;;;;;;;15.82;13.35;;;666.30;2432.00;;;;;;5075811;28;20029;-72
2023/08/21 02:59:56;;;;;;;17.98;14.07;;;666.20;2432.00;;;;;;5062090;28;20043;-72
2023/08/21 03:02:22;;;;;;;16.05;14.35;;;666.20;2432.00;;;;;;5074219;28;20027;-72
2023/08/21 03:04:48;;;;;;;18.88;13.98;;;666.20;2432.00;;;;;;5075395;28;20033;-72
2023/08/21 03:07:15;;;;;;;19.00;14.50;;;666.20;2432.00;;;;;;5075440;28;20112;-72
2023/08/21 03:09:41;;;;;;;16.92;14.93;;;666.10;2432.00;;;;;;5075401;28;20100;-72
2023/08/21 03:12:08;;;;;;;18.55;14.43;;;666.20;2432.00;;;;;;5075433;28;20448;-73
2023/08/21 03:14:34;;;;;;;21.60;15.20;;;666.10;2432.00;;;;;;5075214;28;20350;-72
2023/08/21 03:17:00;;;;;;;19.15;15.00;;;666.10;2432.00;;;;;;5074996;28;20125;-72
2023/08/21 03:19:26;;;;;;;18.23;15.40;;;666.10;2432.00;;;;;;5074657;28;20588;-72
2023/08/21 03:21:51;;;;;;;17.40;14.77;;;666.20;2432.00;;;;;;5064239;28;20033;-72
2023/08/21 03:24:17;;;;;;;19.95;15.50;;;666.30;2432.00;;;;;;5072757;28;20067;-72
2023/08/21 03:26:43;;;;;;;16.67;15.00;;;666.30;2432.00;;;;;;5074847;28;20017;-71
2023/08/21 03:29:09;;;;;;;17.50;14.10;;;666.30;2432.00;;;;;;5074866;28;20032;-72
2023/08/21 03:31:34;;;;;;;17.17;14.80;;;666.30;2432.00;;;;;;5074856;28;20146;-73
2023/08/21 03:34:00;;;;;;;16.02;12.50;;;666.30;2432.00;;;;;;5074603;28;20388;-72
2023/08/21 03:36:37;;;;;;;21.40;15.20;;;666.30;2432.00;;;;;;5074707;28;20103;-72
2023/08/21 03:39:06;;;;;;;19.02;13.88;;;666.30;2432.00;;;;;;5074474;28;20040;-72
2023/08/21 03:41:32;;;;;;;21.95;15.85;;;666.30;2432.00;;;;;;5074896;28;20400;-72
2023/08/21 03:43:58;;;;;;;21.52;15.23;;;666.10;2432.00;;;;;;5074403;28;20028;-72
2023/08/21 03:46:23;;;;;;;16.73;13.55;;;665.90;2432.00;;;;;;5074691;28;20464;-72
2023/08/21 03:48:50;;;;;;;16.77;15.07;;;665.70;2432.00;;;;;;5074108;28;20033;-71
2023/08/21 03:51:16;;;;;;;17.15;15.40;;;665.60;2432.00;;;;;;5074757;28;20016;-73
2023/08/21 03:53:42;;;;;;;20.10;14.98;;;640.80;2432.00;;;;;;5074506;28;20498;-72
2023/08/21 03:56:08;;;;;;;18.02;15.65;;;640.70;2432.00;;;;;;5074408;28;20106;-72
2023/08/21 03:58:33;;;;;;;20.98;17.52;;;640.60;2432.00;;;;;;5074280;28;20132;-72
2023/08/21 04:00:59;;;;;;;19.13;16.48;;;640.50;2432.00;;;;;;5074382;28;20028;-72
2023/08/21 04:03:25;;;;;;;21.60;15.85;;;640.50;2432.00;;;;;;5073813;28;20021;-71
2023/08/21 04:05:53;;;;;;;22.40;15.90;;;640.50;2432.00;;;;;;5074075;28;20027;-73
2023/08/21 04:08:19;;;;;;;18.75;16.73;;;640.60;2432.00;;;;;;5072768;28;20392;-73
2023/08/21 04:10:45;;;;;;;20.42;18.33;;;640.70;2432.00;;;;;;5074021;28;20073;-73
2023/08/21 04:13:10;;;;;;;18.63;16.45;;;640.70;2432.00;;;;;;5073846;28;20009;-72
2023/08/21 04:15:37;;;;;;;24.08;15.75;;;640.70;2432.00;;;;;;5074182;28;20033;-72
2023/08/21 04:18:03;;;;;;;19.83;16.25;;;640.70;2432.00;;;;;;5073416;28;20057;-73
2023/08/21 04:20:29;;;;;;;21.88;17.20;;;640.80;2432.00;;;;;;5068161;28;20054;-72
2023/08/21 04:22:55;;;;;;;60.95;54.60;;;640.90;2432.00;;;;;;5063225;28;20150;-72
2023/08/21 04:25:20;;;;;;;57.42;50.08;;;640.90;2432.00;;;;;;5060887;28;20057;-72
2023/08/21 04:27:46;;;;;;;138.60;117.35;;;640.90;2432.00;;;;;;5066070;28;20367;-71
2023/08/21 04:30:12;;;;;;;203.20;164.32;;;665.60;2432.00;;;;;;5068686;28;20448;-71
2023/08/21 04:32:38;;;;;;;178.65;138.55;;;665.70;2432.00;;;;;;5066182;28;20055;-73
2023/08/21 04:35:05;;;;;;;187.35;152.38;;;665.60;2432.00;;;;;;5067113;28;20060;-72
2023/08/21 04:37:31;;;;;;;224.27;175.60;;;665.70;2432.00;;;;;;5056334;28;20070;-72
2023/08/21 04:39:57;;;;;;;251.63;194.07;;;665.70;2432.00;;;;;;5062705;28;20039;-71
2023/08/21 04:42:22;;;;;;;159.98;125.18;;;665.70;2432.00;;;;;;5058215;28;20104;-72
2023/08/21 04:44:48;;;;;;;206.30;154.90;;;665.60;2432.00;;;;;;5058136;28;20021;-72
2023/08/21 04:47:27;;;;;;;196.70;150.38;;;665.70;2432.00;;;;;;5061792;28;20054;-73
2023/08/21 04:49:54;;;;;;;191.82;145.98;;;665.70;2432.00;;;;;;5058912;28;20528;-72
2023/08/21 04:52:21;;;;;;;173.07;131.30;;;665.70;2432.00;;;;;;5061395;28;20473;-72
2023/08/21 04:54:50;;;;;;;288.30;209.77;;;665.80;2432.00;;;;;;5061373;28;20032;-72
2023/08/21 04:57:17;;;;;;;300.27;213.73;;;665.90;2432.00;;;;;;5058857;28;20017;-72
2023/08/21 04:59:43;;;;;;;273.13;194.73;;;666.00;2432.00;;;;;;5065243;28;20043;-72
2023/08/21 05:02:09;;;;;;;283.80;197.35;;;666.00;2432.00;;;;;;5069189;28;20115;-71
2023/08/21 05:04:36;;;;;;;303.35;208.85;;;666.00;2432.00;;;;;;5061641;28;20028;-76
2023/08/21 05:07:02;;;;;;;260.92;191.10;;;666.10;2432.00;;;;;;5063687;28;20025;-72
2023/08/21 05:09:28;;;;;;;213.15;163.95;;;666.10;2432.00;;;;;;5066703;28;20032;-74
2023/08/21 05:11:55;;;;;;;218.18;163.02;;;666.10;2432.00;;;;;;5061738;28;20467;-71
2023/08/21 05:14:22;;;;;;;210.45;146.32;;;666.10;2432.00;;;;;;5057829;28;20211;-72
2023/08/21 05:16:49;;;;;;;105.15;79.47;;;666.10;2432.00;;;;;;5055179;28;20082;-73
2023/08/21 05:19:15;;;;;;;80.63;62.10;;;666.20;2432.00;;;;;;5058833;28;20112;-71
2023/08/21 05:21:40;;;;;;;180.40;139.43;;;666.10;2432.00;;;;;;5064171;28;20052;-71
2023/08/21 05:24:06;;;;;;;202.48;162.95;;;666.20;2432.00;;;;;;5059858;28;20045;-72
2023/08/21 05:26:32;;;;;;;266.58;208.18;;;666.20;2432.00;;;;;;5063154;28;20031;-71
2023/08/21 05:28:57;;;;;;;101.07;75.07;;;666.30;2432.00;;;;;;5069954;28;20047;-72
2023/08/21 05:31:23;;;;;;;37.22;31.65;;;666.40;2432.00;;;;;;5063519;28;20039;-73
2023/08/21 05:33:49;;;;;;;26.98;21.40;;;666.40;2432.00;;;;;;5070040;28;20419;-78
2023/08/21 05:36:14;;;;;;;21.30;18.02;;;666.30;2432.00;;;;;;5061150;28;20028;-72
2023/08/21 05:38:40;;;;;;;21.80;17.73;;;666.50;2432.00;;;;;;5067248;28;20047;-76
2023/08/21 05:41:06;;;;;;;25.58;18.17;;;691.20;2432.00;;;;;;5072068;28;20040;-72
2023/08/21 05:43:32;;;;;;;23.42;18.48;;;691.20;2432.00;;;;;;5068036;28;20021;-73
2023/08/21 05:45:57;;;;;;;22.42;17.42;;;691.20;2432.00;;;;;;5067880;28;20514;-73
2023/08/21 05:48:23;;;;;;;27.92;16.15;;;691.40;2432.00;;;;;;5069901;28;20373;-73
2023/08/21 05:50:52;;;;;;;19.00;15.48;;;691.60;2432.00;;;;;;5070285;28;20033;-72
2023/08/21 05:53:18;;;;;;;19.90;15.98;;;691.60;2432.00;;;;;;5063039;28;20031;-74
2023/08/21 05:55:44;;;;;;;19.85;15.50;;;691.70;2432.00;;;;;;5067398;28;20025;-72
2023/08/21 05:58:10;;;;;;;18.40;15.10;;;691.80;2432.00;;;;;;5070995;28;20111;-72
2023/08/21 06:00:38;;;;;;;20.23;15.05;;;691.80;2432.00;;;;;;5066543;28;20409;-72
2023/08/21 06:03:04;;;;;;;20.58;14.98;;;691.90;2432.00;;;;;;5064999;28;20025;-73
2023/08/21 06:05:30;;;;;;;18.50;15.52;;;692.00;2432.00;;;;;;5071713;28;20083;-72
2023/08/21 06:07:55;;;;;;;19.17;15.55;;;692.10;2432.00;;;;;;5073884;28;20468;-74
2023/08/21 06:10:21;;;;;;;17.45;14.48;;;716.80;2432.00;;;;;;5071166;28;20063;-73
2023/08/21 06:12:48;;;;;;;18.75;14.50;;;716.80;2432.00;;;;;;5071762;28;20025;-73
2023/08/21 06:15:14;;;;;;;16.45;14.65;;;717.00;2432.00;;;;;;5064620;28;20040;-72
2023/08/21 06:17:40;;;;;;;18.73;15.13;;;717.10;2432.00;;;;;;5063687;28;20477;-74
2023/08/21 06:20:08;;;;;;;17.75;14.27;;;717.20;2432.00;;;;;;5070511;28;20024;-72
2023/08/21 06:22:34;;;;;;;23.88;15.10;;;717.20;2432.00;;;;;;5068771;28;20021;-72
2023/08/21 06:25:00;;;;;;;17.58;14.80;;;717.40;2432.00;;;;;;5071900;28;20021;-73
2023/08/21 06:27:26;;;;;;;20.35;14.73;;;717.50;2432.00;;;;;;5071090;28;20031;-73
2023/08/21 06:29:52;;;;;;;20.67;15.40;;;717.60;2432.00;;;;;;5070063;28;20477;-72
2023/08/21 06:32:18;;;;;;;18.88;15.20;;;717.70;2432.00;;;;;;5070076;28;20033;-74
2023/08/21 06:34:43;;;;;;;21.77;15.73;;;742.50;2432.00;;;;;;5070491;28;20036;-72
2023/08/21 06:37:09;;;;;;;25.42;15.88;;;742.60;2432.00;;;;;;5075066;28;20047;-73
2023/08/21 06:39:35;;;;;;;24.17;14.40;;;742.80;2432.00;;;;;;5069098;28;20036;-73
2023/08/21 06:42:01;;;;;;;20.17;14.52;;;742.80;2432.00;;;;;;5062522;28;20050;-73
2023/08/21 06:44:27;;;;;;;20.65;14.68;;;742.90;2432.00;;;;;;5071242;28;20025;-73
2023/08/21 06:46:53;;;;;;;21.92;15.90;;;743.10;2432.00;;;;;;5070994;28;20028;-73
2023/08/21 06:49:18;;;;;;;20.65;15.93;;;743.10;2432.00;;;;;;5074191;28;21188;-73
2023/08/21 06:51:44;;;;;;;28.17;14.45;;;743.30;2432.00;;;;;;5074663;28;20033;-74
2023/08/21 06:54:10;;;;;;;19.50;14.65;;;768.10;2432.00;;;;;;5073015;28;20031;-73
2023/08/21 06:56:35;;;;;;;19.85;13.63;;;768.20;2432.00;;;;;;5066924;28;20035;-73
2023/08/21 06:59:02;;;;;;;20.67;14.00;;;768.40;2432.00;;;;;;5069417;28;20041;-74
2023/08/21 07:01:28;;;;;;;17.77;13.60;;;768.40;2432.00;;;;;;5070477;28;20028;-73
2023/08/21 07:03:54;;;;;;;21.38;15.57;;;768.60;2432.00;;;;;;5066073;28;20037;-75
2023/08/21 07:06:20;;;;;;;16.83;12.90;;;768.80;2432.00;;;;;;5070159;28;20032;-73
2023/08/21 07:08:45;;;;;;;17.20;13.70;;;768.90;2432.00;;;;;;5067502;28;20036;-72
2023/08/21 07:11:12;;;;;;;17.67;12.70;;;793.70;2432.00;;;;;;5064250;28;20029;-74
2023/08/21 07:13:38;;;;;;;14.90;12.57;;;793.80;2432.00;;;;;;5070012;28;20112;-73
2023/08/21 07:16:05;;;;;;;24.10;13.45;;;794.00;2432.00;;;;;;5074211;28;20025;-74
2023/08/21 07:18:35;;;;;;;20.90;13.35;;;794.20;2432.00;;;;;;5064938;28;20049;-73
2023/08/21 07:21:04;;;;;;;17.38;12.88;;;794.30;2432.00;;;;;;5068694;28;20086;-72
2023/08/21 07:23:30;;;;;;;19.40;12.90;;;794.50;2432.00;;;;;;5067737;28;20025;-75
2023/08/21 07:25:57;;;;;;;16.48;11.85;;;819.30;2432.00;;;;;;5065567;28;20082;-73
2023/08/21 07:28:23;;;;;;;19.77;13.00;;;819.30;2432.00;;;;;;5069088;28;20362;-73
2023/08/21 07:30:57;;;;;;;17.55;12.93;;;819.40;2432.00;;;;;;5067915;28;20083;-74
2023/08/21 07:33:24;;;;;;;25.30;12.32;;;819.70;2432.00;;;;;;5069739;28;20028;-73
2023/08/21 07:36:02;;;;;;;16.35;12.68;;;819.80;2432.00;;;;;;5069556;28;20499;-73
2023/08/21 07:38:27;;;;;;;16.65;12.05;;;820.00;2432.00;;;;;;5067145;28;20037;-73
2023/08/21 07:41:10;;;;;;;14.63;12.07;;;844.80;2432.00;;;;;;5072013;28;20107;-72
2023/08/21 07:43:40;;;;;;;14.32;11.30;;;844.90;2329.60;;;;;;5069545;28;20035;-73
2023/08/21 07:46:07;;;;;;;14.55;11.70;;;845.00;2355.20;;;;;;5061319;28;20025;-73
2023/08/21 07:48:33;;;;;;;20.17;11.95;;;845.20;2227.20;;;;;;5064801;28;20438;-73
2023/08/21 07:50:59;;;;;;;23.35;12.20;;;845.40;2227.20;;;;;;5071112;28;20028;-75
2023/08/21 07:53:25;;;;;;;15.88;10.93;;;845.60;2227.20;;;;;;5060138;28;20081;-73
2023/08/21 07:55:51;;;;;;;12.48;11.18;;;845.50;2176.00;;;;;;5065152;28;20021;-72
2023/08/21 07:58:17;;;;;;;13.27;11.20;;;870.40;2073.60;;;;;;5069785;28;20492;-72
2023/08/21 08:00:43;;;;;;;14.05;11.68;;;870.50;2099.20;;;;;;5071454;28;20035;-74
2023/08/21 08:03:10;;;;;;;15.07;11.90;;;870.60;2176.00;;;;;;5071858;28;20033;-75
2023/08/21 08:05:36;;;;;;;13.80;10.70;;;870.70;2073.60;;;;;;5064697;28;20130;-72
2023/08/21 08:08:02;;;;;;;12.95;11.10;;;870.90;2022.40;;;;;;5071939;28;20496;-74
2023/08/21 08:10:28;;;;;;;15.95;11.23;;;871.00;2048.00;;;;;;5072172;28;20032;-73
2023/08/21 08:12:54;;;;;;;12.07;10.50;;;871.10;2022.40;;;;;;5062438;28;20536;-73
2023/08/21 08:15:21;;;;;;;11.13;10.02;;;871.30;1894.40;;;;;;5062929;28;20115;-73
2023/08/21 08:17:47;;;;;;;15.80;11.27;;;896.10;1894.40;;;;;;5067547;28;20491;-72
2023/08/21 08:20:13;;;;;;;14.73;10.63;;;896.30;1894.40;;;;;;5070480;28;20037;-74
2023/08/21 08:22:39;;;;;;;14.80;10.35;;;896.30;1843.20;;;;;;5059590;28;20032;-74
2023/08/21 08:25:05;;;;;;;12.77;9.88;;;896.50;1792.00;;;;;;5065345;28;20488;-72
2023/08/21 08:27:32;;;;;;;10.77;9.68;;;896.60;1817.60;;;;;;5068558;28;20060;-72
2023/08/21 08:29:58;;;;;;;13.05;9.45;;;896.70;1766.40;;;;;;5073300;28;20490;-73
2023/08/21 08:32:25;;;;;;;16.58;10.00;;;896.90;1740.80;;;;;;5064139;28;20107;-72
2023/08/21 08:34:51;;;;;;;10.70;9.60;;;921.60;1792.00;;;;;;5069010;28;20020;-72
2023/08/21 08:37:17;;;;;;;10.95;9.85;;;921.70;1740.80;;;;;;5070288;28;20032;-73
2023/08/21 08:39:43;;;;;;;12.63;9.43;;;921.80;1766.40;;;;;;5063745;28;20102;-74
2023/08/21 08:42:09;;;;;;;10.68;9.45;;;922.00;1664.00;;;;;;5067955;28;20063;-77
2023/08/21 08:44:38;;;;;;;10.40;9.30;;;921.80;1689.60;;;;;;5068228;28;20028;-73
2023/08/21 08:47:04;;;;;;;10.25;8.88;;;922.00;1715.20;;;;;;5067837;28;20028;-74
2023/08/21 08:49:31;;;;;;;10.48;8.98;;;922.00;1664.00;;;;;;5068029;28;20024;-74
2023/08/21 08:51:59;;;;;;;11.65;8.50;;;922.00;1664.00;;;;;;5064569;28;20427;-77
2023/08/21 08:54:26;;;;;;;11.00;8.90;;;922.20;1612.80;;;;;;5072368;28;20078;-77
2023/08/21 08:56:52;;;;;;;9.93;8.93;;;922.00;1612.80;;;;;;5068090;28;20036;-75
2023/08/21 08:59:18;;;;;;;11.15;9.02;;;922.40;1638.40;;;;;;5067977;28;20036;-73
2023/08/21 09:01:43;;;;;;;11.05;9.85;;;922.40;1612.80;;;;;;5061228;28;20388;-73
2023/08/21 09:04:10;;;;;;;10.32;9.27;;;922.50;1612.80;;;;;;5068100;28;20025;-74
2023/08/21 09:06:36;;;;;;;11.15;8.60;;;947.30;1561.60;;;;;;5067948;28;20031;-73
2023/08/21 09:09:02;;;;;;;11.02;8.98;;;947.20;1510.40;;;;;;5072155;28;20416;-73
2023/08/21 09:11:28;;;;;;;12.57;9.70;;;947.70;1561.60;;;;;;5069324;28;20234;-73
2023/08/21 09:13:55;;;;;;;12.27;9.02;;;947.70;1510.40;;;;;;5067194;28;20029;-74
2023/08/21 09:16:22;;;;;;;10.25;8.77;;;947.90;1484.80;;;;;;5070765;28;20020;-73
2023/08/21 09:18:49;;;;;;;11.52;8.73;;;948.10;1484.80;;;;;;5063360;28;20059;-73
2023/08/21 09:21:21;;;;;;;11.77;9.20;;;948.10;1510.40;;;;;;5065309;28;20095;-72
2023/08/21 09:23:48;;;;;;;10.68;8.23;;;972.90;1484.80;;;;;;5069790;28;20035;-73
2023/08/21 09:26:21;;;;;;;9.82;8.32;;;948.10;1433.60;;;;;;5063567;28;20020;-73
2023/08/21 09:28:48;;;;;;;15.25;9.70;;;972.90;1459.20;;;;;;5065639;28;20028;-74
2023/08/21 09:31:14;;;;;;;9.65;8.65;;;972.90;1510.40;;;;;;5067027;28;20021;-73
2023/08/21 09:33:40;;;;;;;10.57;8.07;;;973.00;1484.80;;;;;;5065382;28;20131;-73
2023/08/21 09:36:06;;;;;;;10.13;8.45;;;973.00;1433.60;;;;;;5076351;28;20483;-73
2023/08/21 09:38:35;;;;;;;11.70;8.23;;;973.10;1484.80;;;;;;5069871;28;20108;-76
2023/08/21 09:41:01;;;;;;;10.15;8.82;;;973.20;1459.20;;;;;;5083557;28;20503;-73
2023/08/21 09:43:27;;;;;;;12.18;8.45;;;973.20;1408.00;;;;;;5071748;28;20033;-73
2023/08/21 09:45:55;;;;;;;13.93;8.45;;;973.10;1382.40;;;;;;5075912;28;20029;-73
2023/08/21 09:48:27;;;;;;;16.58;8.50;;;973.20;1408.00;;;;;;5067016;28;20040;-74
2023/08/21 09:50:54;;;;;;;9.82;8.18;;;973.30;1408.00;;;;;;5071743;28;20104;-74
2023/08/21 09:53:22;;;;;;;9.23;8.02;;;973.60;1408.00;;;;;;5069225;28;20032;-74
2023/08/21 09:55:52;;;;;;;11.32;8.48;;;973.70;1356.80;;;;;;5064494;28;20048;-72
2023/08/21 09:58:19;;;;;;;10.40;8.32;;;973.70;1382.40;;;;;;5069763;28;20052;-72
2023/08/21 10:00:48;;;;;;;12.95;8.80;;;973.60;1408.00;;;;;;5072829;28;20028;-72
2023/08/21 10:03:19;;;;;;;10.05;8.88;;;973.50;1408.00;;;;;;5075743;28;20035;-72
2023/08/21 10:05:47;;;;;;;15.20;8.57;;;973.60;1382.40;;;;;;5063832;28;20025;-73
2023/08/21 10:08:18;;;;;;;9.88;8.60;;;973.00;1433.60;;;;;;5071130;28;20469;-74
2023/08/21 10:10:44;;;;;;;11.93;9.00;;;973.10;1433.60;;;;;;5071104;28;20036;-72
2023/08/21 10:13:11;;;;;;;10.57;8.60;;;973.30;1408.00;;;;;;5068979;28;20021;-72
2023/08/21 10:15:38;;;;;;;10.93;8.63;;;973.30;1382.40;;;;;;5074721;28;20040;-71
2023/08/21 10:18:23;;;;;;;10.80;8.52;;;973.50;1382.40;;;;;;5074448;28;20055;-72
2023/08/21 10:20:50;;;;;;;9.98;8.60;;;973.10;1382.40;;;;;;5070820;28;20025;-72
2023/08/21 10:23:29;;;;;;;10.90;8.15;;;973.30;1382.40;;;;;;5066207;28;20531;-72
2023/08/21 10:25:57;;;;;;;9.98;7.93;;;973.70;1305.60;;;;;;5067921;28;20033;-73
2023/08/21 10:28:23;;;;;;;10.43;7.72;;;998.40;1356.80;;;;;;5064266;28;20029;-72
2023/08/21 10:30:49;;;;;;;8.88;7.97;;;973.70;1356.80;;;;;;5075323;28;20443;-72
2023/08/21 10:33:15;;;;;;;9.55;7.63;;;973.00;1356.80;;;;;;5066243;28;20036;-73
2023/08/21 10:35:40;;;;;;;13.20;8.90;;;947.90;1356.80;;;;;;5068480;28;20028;-74
2023/08/21 10:38:15;;;;;;;10.32;8.77;;;973.10;1356.80;;;;;;5069347;28;20044;-72
2023/08/21 10:41:01;;;;;;;11.77;8.50;;;973.50;1305.60;;;;;;5068768;28;20111;-72
2023/08/21 10:43:37;;;;;;;9.48;7.40;;;973.70;1331.20;;;;;;5069109;28;20560;-72
2023/08/21 10:46:03;;;;;;;9.52;7.82;;;998.50;1331.20;;;;;;5071016;28;20074;-72
2023/08/21 10:48:29;;;;;;;10.10;7.53;;;998.70;1305.60;;;;;;5064599;28;20033;-73
2023/08/21 10:50:55;;;;;;;12.48;7.70;;;998.70;1254.40;;;;;;5072456;28;20361;-73
2023/08/21 10:53:23;;;;;;;11.30;8.48;;;998.80;1228.80;;;;;;5074760;28;20477;-72
2023/08/21 10:55:56;;;;;;;8.63;7.72;;;998.80;1305.60;;;;;;5069928;28;20056;-73
2023/08/21 10:58:21;;;;;;;10.52;8.60;;;999.00;1254.40;;;;;;5070323;28;20061;-72
2023/08/21 11:00:55;;;;;;;10.15;7.65;;;999.10;1228.80;;;;;;5066475;28;20425;-72
2023/08/21 11:03:21;;;;;;;10.02;7.85;;;999.10;1280.00;;;;;;5072406;28;20036;-73
2023/08/21 11:06:07;;;;;;;10.80;7.88;;;999.00;1203.20;;;;;;5071955;28;20074;-72
2023/08/21 11:08:33;;;;;;;7.82;6.97;;;999.10;1254.40;;;;;;5073671;28;20032;-73
2023/08/21 11:11:00;;;;;;;9.63;7.40;;;999.10;1280.00;;;;;;5064898;28;20106;-73
2023/08/21 11:13:26;;;;;;;9.68;7.97;;;999.20;1228.80;;;;;;5072023;28;20484;-73
2023/08/21 11:16:03;;;;;;;11.07;7.68;;;999.30;1228.80;;;;;;5072575;28;20037;-72
2023/08/21 11:18:38;;;;;;;14.10;7.88;;;1024.00;1203.20;;;;;;5069566;28;20106;-72
2023/08/21 11:21:09;;;;;;;10.45;7.75;;;1024.00;1228.80;;;;;;5065996;28;20116;-72
2023/08/21 11:23:36;;;;;;;11.68;7.80;;;1024.00;1177.60;;;;;;5068664;28;20434;-72
2023/08/21 11:26:04;;;;;;;12.88;8.20;;;999.00;1203.20;;;;;;5072384;28;20516;-71
2023/08/21 11:28:30;;;;;;;10.40;7.57;;;998.80;1228.80;;;;;;5069259;28;20039;-71
2023/08/21 11:30:57;;;;;;;12.05;7.03;;;999.10;1254.40;;;;;;5067854;28;20496;-71
2023/08/21 11:33:24;;;;;;;9.30;7.97;;;999.20;1254.40;;;;;;5062693;28;20108;-72
2023/08/21 11:35:51;;;;;;;7.70;6.95;;;1024.00;1228.80;;;;;;5069034;28;20016;-74
2023/08/21 11:38:22;;;;;;;9.23;7.95;;;1024.20;1228.80;;;;;;5062509;28;20157;-73
2023/08/21 11:40:56;;;;;;;9.63;7.40;;;998.70;1203.20;;;;;;5069572;28;20534;-72
2023/08/21 11:43:22;;;;;;;8.63;7.28;;;973.60;1254.40;;;;;;5072342;28;20016;-72
2023/08/21 11:45:48;;;;;;;9.77;7.20;;;998.60;1228.80;;;;;;5085430;28;20566;-73
2023/08/21 11:48:14;;;;;;;8.90;8.10;;;998.80;1228.80;;;;;;5071014;28;20036;-72
2023/08/21 11:50:40;;;;;;;11.55;7.90;;;999.30;1177.60;;;;;;5062696;28;20029;-72
2023/08/21 11:53:06;;;;;;;8.93;8.00;;;999.20;1177.60;;;;;;5060196;28;20056;-72
2023/08/21 11:55:32;;;;;;;7.55;6.75;;;998.40;1203.20;;;;;;5070039;28;20029;-73
2023/08/21 11:57:58;;;;;;;10.13;7.78;;;973.10;1254.40;;;;;;5070141;28;20017;-74
2023/08/21 12:00:30;;;;;;;12.75;7.97;;;973.30;1280.00;;;;;;5062552;28;20126;-72